sensor_id;sensor_type;location;lat;lon;timestamp;temperature;humidity
4279;DHT22;2153;47.744;10.580;2023-07-29T00:01:57;14.50;99.90
4279;DHT22;2153;47.744;10.580;2023-07-29T00:04:24;14.40;99.90
4279;DHT22;2153;47.744;10.580;2023-07-29T00:06:51;14.40;99.90
4279;DHT22;2153;47.744;10.580;2023-07-29T00:09:17;14.40;99.90
4279;DHT22;2153;47.744;10.580;2023-07-29T00:11:45;14.50;99.90
4279;DHT22;2153;47.744;10.580;2023-07-29T00:14:12;14.50;99.90
4279;DHT22;2153;47.744;10.580;2023-07-29T00:16:39;14.50;99.90
4279;DHT22;2153;47.744;10.580;2023-07-29T00:19:06;14.60;99.90
4279;DHT22;2153;47.744;10.580;2023-07-29T00:21:33;14.60;99.90
4279;DHT22;2153;47.744;10.580;2023-07-29T00:24:00;14.60;99.90
4279;DHT22;2153;47.744;10.580;2023-07-29T00:26:27;14.60;99.90
4279;DHT22;2153;47.744;10.580;2023-07-29T00:28:56;14.70;99.90
4279;DHT22;2153;47.744;10.580;2023-07-29T00:31:23;14.80;99.90
4279;DHT22;2153;47.744;10.580;2023-07-29T00:33:49;14.80;99.90
4279;DHT22;2153;47.744;10.580;2023-07-29T00:36:18;14.90;99.90
4279;DHT22;2153;47.744;10.580;2023-07-29T00:38:45;15.00;99.90
4279;DHT22;2153;47.744;10.580;2023-07-29T00:41:12;14.90;99.90
4279;DHT22;2153;47.744;10.580;2023-07-29T00:43:40;14.90;99.90
4279;DHT22;2153;47.744;10.580;2023-07-29T00:46:08;15.00;99.90
4279;DHT22;2153;47.744;10.580;2023-07-29T00:48:36;15.00;99.90
4279;DHT22;2153;47.744;10.580;2023-07-29T00:51:03;15.10;99.90
4279;DHT22;2153;47.744;10.580;2023-07-29T00:53:29;15.20;99.90
4279;DHT22;2153;47.744;10.580;2023-07-29T00:55:56;15.20;99.90
4279;DHT22;2153;47.744;10.580;2023-07-29T00:58:23;15.20;99.90
4279;DHT22;2153;47.744;10.580;2023-07-29T01:00:50;15.20;99.90
4279;DHT22;2153;47.744;10.580;2023-07-29T01:03:18;15.20;99.90
4279;DHT22;2153;47.744;10.580;2023-07-29T01:05:50;15.20;99.90
4279;DHT22;2153;47.744;10.580;2023-07-29T01:08:25;15.20;99.90
4279;DHT22;2153;47.744;10.580;2023-07-29T01:11:01;15.20;99.90
4279;DHT22;2153;47.744;10.580;2023-07-29T01:13:34;15.20;99.90
4279;DHT22;2153;47.744;10.580;2023-07-29T01:16:10;15.20;99.90
4279;DHT22;2153;47.744;10.580;2023-07-29T01:18:41;15.20;99.90
4279;DHT22;2153;47.744;10.580;2023-07-29T01:21:09;15.20;99.90
4279;DHT22;2153;47.744;10.580;2023-07-29T01:23:38;15.10;99.90
4279;DHT22;2153;47.744;10.580;2023-07-29T01:26:05;15.10;99.90
4279;DHT22;2153;47.744;10.580;2023-07-29T01:28:32;15.10;99.90
4279;DHT22;2153;47.744;10.580;2023-07-29T01:31:05;15.00;99.90
4279;DHT22;2153;47.744;10.580;2023-07-29T01:33:38;15.00;99.90
4279;DHT22;2153;47.744;10.580;2023-07-29T01:36:10;14.90;99.90
4279;DHT22;2153;47.744;10.580;2023-07-29T01:38:41;14.90;99.90
4279;DHT22;2153;47.744;10.580;2023-07-29T01:41:09;14.90;99.90
4279;DHT22;2153;47.744;10.580;2023-07-29T01:43:37;14.80;99.90
4279;DHT22;2153;47.744;10.580;2023-07-29T01:46:09;14.80;99.90
4279;DHT22;2153;47.744;10.580;2023-07-29T01:48:37;14.70;99.90
4279;DHT22;2153;47.744;10.580;2023-07-29T01:51:03;14.70;99.90
4279;DHT22;2153;47.744;10.580;2023-07-29T01:53:30;14.70;99.90
4279;DHT22;2153;47.744;10.580;2023-07-29T01:55:58;14.80;99.90
4279;DHT22;2153;47.744;10.580;2023-07-29T01:58:25;14.80;99.90
4279;DHT22;2153;47.744;10.580;2023-07-29T02:00:52;14.80;99.90
4279;DHT22;2153;47.744;10.580;2023-07-29T02:03:18;14.70;99.90
4279;DHT22;2153;47.744;10.580;2023-07-29T02:05:45;14.70;99.90
4279;DHT22;2153;47.744;10.580;2023-07-29T02:08:12;14.70;99.90
4279;DHT22;2153;47.744;10.580;2023-07-29T02:10:39;14.70;99.90
4279;DHT22;2153;47.744;10.580;2023-07-29T02:13:08;14.80;99.90
4279;DHT22;2153;47.744;10.580;2023-07-29T02:15:34;14.80;99.90
4279;DHT22;2153;47.744;10.580;2023-07-29T02:18:01;14.80;99.90
4279;DHT22;2153;47.744;10.580;2023-07-29T02:20:28;14.70;99.90
4279;DHT22;2153;47.744;10.580;2023-07-29T02:22:55;14.70;99.90
4279;DHT22;2153;47.744;10.580;2023-07-29T02:25:22;14.70;99.90
4279;DHT22;2153;47.744;10.580;2023-07-29T02:27:49;14.70;99.90
4279;DHT22;2153;47.744;10.580;2023-07-29T02:30:17;14.80;99.90
4279;DHT22;2153;47.744;10.580;2023-07-29T02:32:43;14.70;99.90
4279;DHT22;2153;47.744;10.580;2023-07-29T02:35:12;14.70;99.90
4279;DHT22;2153;47.744;10.580;2023-07-29T02:37:38;14.70;99.90
4279;DHT22;2153;47.744;10.580;2023-07-29T02:40:06;14.70;99.90
4279;DHT22;2153;47.744;10.580;2023-07-29T02:42:33;14.70;99.90
4279;DHT22;2153;47.744;10.580;2023-07-29T02:44:59;14.70;99.90
4279;DHT22;2153;47.744;10.580;2023-07-29T02:47:27;14.70;99.90
4279;DHT22;2153;47.744;10.580;2023-07-29T02:49:55;14.70;99.90
4279;DHT22;2153;47.744;10.580;2023-07-29T02:52:21;14.70;99.90
4279;DHT22;2153;47.744;10.580;2023-07-29T02:54:48;14.70;99.90
4279;DHT22;2153;47.744;10.580;2023-07-29T02:57:15;14.70;99.90
4279;DHT22;2153;47.744;10.580;2023-07-29T02:59:42;14.70;99.90
4279;DHT22;2153;47.744;10.580;2023-07-29T03:02:09;14.70;99.90
4279;DHT22;2153;47.744;10.580;2023-07-29T03:04:37;14.70;99.90
4279;DHT22;2153;47.744;10.580;2023-07-29T03:07:04;14.60;99.90
4279;DHT22;2153;47.744;10.580;2023-07-29T03:09:31;14.60;99.90
4279;DHT22;2153;47.744;10.580;2023-07-29T03:11:58;14.60;99.90
4279;DHT22;2153;47.744;10.580;2023-07-29T03:14:25;14.60;99.90
4279;DHT22;2153;47.744;10.580;2023-07-29T03:16:51;14.50;99.90
4279;DHT22;2153;47.744;10.580;2023-07-29T03:19:18;14.50;99.90
4279;DHT22;2153;47.744;10.580;2023-07-29T03:21:46;14.50;99.90
4279;DHT22;2153;47.744;10.580;2023-07-29T03:24:13;14.50;99.90
4279;DHT22;2153;47.744;10.580;2023-07-29T03:26:40;14.40;99.90
4279;DHT22;2153;47.744;10.580;2023-07-29T03:29:07;14.40;99.90
4279;DHT22;2153;47.744;10.580;2023-07-29T03:31:34;14.40;99.90
4279;DHT22;2153;47.744;10.580;2023-07-29T03:34:00;14.30;99.90
4279;DHT22;2153;47.744;10.580;2023-07-29T03:36:27;14.30;99.90
4279;DHT22;2153;47.744;10.580;2023-07-29T03:38:55;14.30;99.90
4279;DHT22;2153;47.744;10.580;2023-07-29T03:41:22;14.30;99.90
4279;DHT22;2153;47.744;10.580;2023-07-29T03:43:48;14.30;99.90
4279;DHT22;2153;47.744;10.580;2023-07-29T03:46:15;14.30;99.90
4279;DHT22;2153;47.744;10.580;2023-07-29T03:48:45;14.20;99.90
4279;DHT22;2153;47.744;10.580;2023-07-29T03:51:11;14.20;99.90
4279;DHT22;2153;47.744;10.580;2023-07-29T03:53:38;14.30;99.90
4279;DHT22;2153;47.744;10.580;2023-07-29T03:56:07;14.30;99.90
4279;DHT22;2153;47.744;10.580;2023-07-29T03:58:33;14.30;99.90
4279;DHT22;2153;47.744;10.580;2023-07-29T04:01:00;14.30;99.90
4279;DHT22;2153;47.744;10.580;2023-07-29T04:03:27;14.30;99.90
4279;DHT22;2153;47.744;10.580;2023-07-29T04:05:53;14.30;99.90
4279;DHT22;2153;47.744;10.580;2023-07-29T04:08:20;14.40;99.90
4279;DHT22;2153;47.744;10.580;2023-07-29T04:10:48;14.40;99.90
4279;DHT22;2153;47.744;10.580;2023-07-29T04:13:16;14.40;99.90
4279;DHT22;2153;47.744;10.580;2023-07-29T04:15:42;14.50;99.90
4279;DHT22;2153;47.744;10.580;2023-07-29T04:18:09;14.60;99.90
4279;DHT22;2153;47.744;10.580;2023-07-29T04:20:36;14.60;99.90
4279;DHT22;2153;47.744;10.580;2023-07-29T04:23:02;14.80;99.90
4279;DHT22;2153;47.744;10.580;2023-07-29T04:25:29;14.90;99.90
4279;DHT22;2153;47.744;10.580;2023-07-29T04:27:56;15.10;99.90
4279;DHT22;2153;47.744;10.580;2023-07-29T04:30:24;15.20;99.90
4279;DHT22;2153;47.744;10.580;2023-07-29T04:32:51;15.20;99.90
4279;DHT22;2153;47.744;10.580;2023-07-29T04:35:17;15.20;99.90
4279;DHT22;2153;47.744;10.580;2023-07-29T04:37:44;15.20;99.90
4279;DHT22;2153;47.744;10.580;2023-07-29T04:40:13;15.10;99.90
4279;DHT22;2153;47.744;10.580;2023-07-29T04:42:40;15.00;99.90
4279;DHT22;2153;47.744;10.580;2023-07-29T04:45:07;15.00;99.90
4279;DHT22;2153;47.744;10.580;2023-07-29T04:47:35;15.00;99.90
4279;DHT22;2153;47.744;10.580;2023-07-29T04:50:02;15.00;99.90
4279;DHT22;2153;47.744;10.580;2023-07-29T04:52:29;15.00;99.90
4279;DHT22;2153;47.744;10.580;2023-07-29T04:54:55;15.00;99.90
4279;DHT22;2153;47.744;10.580;2023-07-29T04:57:22;15.00;99.90
4279;DHT22;2153;47.744;10.580;2023-07-29T04:59:49;15.00;99.90
4279;DHT22;2153;47.744;10.580;2023-07-29T05:02:16;15.00;99.90
4279;DHT22;2153;47.744;10.580;2023-07-29T05:04:44;15.00;99.90
4279;DHT22;2153;47.744;10.580;2023-07-29T05:07:10;15.10;99.90
4279;DHT22;2153;47.744;10.580;2023-07-29T05:09:37;15.10;99.90
4279;DHT22;2153;47.744;10.580;2023-07-29T05:12:05;15.10;99.90
4279;DHT22;2153;47.744;10.580;2023-07-29T05:14:32;15.00;99.90
4279;DHT22;2153;47.744;10.580;2023-07-29T05:16:58;15.10;99.90
4279;DHT22;2153;47.744;10.580;2023-07-29T05:19:26;15.10;99.90
4279;DHT22;2153;47.744;10.580;2023-07-29T05:21:54;15.10;99.90
4279;DHT22;2153;47.744;10.580;2023-07-29T05:24:21;15.10;99.90
4279;DHT22;2153;47.744;10.580;2023-07-29T05:26:48;15.10;99.90
4279;DHT22;2153;47.744;10.580;2023-07-29T05:29:15;15.20;99.90
4279;DHT22;2153;47.744;10.580;2023-07-29T05:31:41;15.30;99.90
4279;DHT22;2153;47.744;10.580;2023-07-29T05:34:08;15.30;99.90
4279;DHT22;2153;47.744;10.580;2023-07-29T05:36:35;15.40;99.90
4279;DHT22;2153;47.744;10.580;2023-07-29T05:39:03;15.40;99.90
4279;DHT22;2153;47.744;10.580;2023-07-29T05:41:30;15.50;99.90
4279;DHT22;2153;47.744;10.580;2023-07-29T05:43:56;15.60;99.90
4279;DHT22;2153;47.744;10.580;2023-07-29T05:46:23;15.60;99.90
4279;DHT22;2153;47.744;10.580;2023-07-29T05:48:50;15.60;99.90
4279;DHT22;2153;47.744;10.580;2023-07-29T05:51:16;15.60;99.90
4279;DHT22;2153;47.744;10.580;2023-07-29T05:53:43;15.60;99.90
4279;DHT22;2153;47.744;10.580;2023-07-29T05:56:11;15.60;99.90
4279;DHT22;2153;47.744;10.580;2023-07-29T05:58:38;15.70;99.90
4279;DHT22;2153;47.744;10.580;2023-07-29T06:01:05;15.70;99.90
4279;DHT22;2153;47.744;10.580;2023-07-29T06:03:31;15.70;99.90
4279;DHT22;2153;47.744;10.580;2023-07-29T06:05:58;15.70;99.90
4279;DHT22;2153;47.744;10.580;2023-07-29T06:08:25;15.60;99.90
4279;DHT22;2153;47.744;10.580;2023-07-29T06:10:53;15.60;99.90
4279;DHT22;2153;47.744;10.580;2023-07-29T06:13:21;15.60;99.90
4279;DHT22;2153;47.744;10.580;2023-07-29T06:15:48;15.60;99.90
4279;DHT22;2153;47.744;10.580;2023-07-29T06:18:15;15.60;99.90
4279;DHT22;2153;47.744;10.580;2023-07-29T06:20:42;15.70;99.90
4279;DHT22;2153;47.744;10.580;2023-07-29T06:23:08;15.70;99.90
4279;DHT22;2153;47.744;10.580;2023-07-29T06:25:35;15.80;99.90
4279;DHT22;2153;47.744;10.580;2023-07-29T06:28:02;15.90;99.90
4279;DHT22;2153;47.744;10.580;2023-07-29T06:30:30;15.80;99.90
4279;DHT22;2153;47.744;10.580;2023-07-29T06:32:56;15.90;99.90
4279;DHT22;2153;47.744;10.580;2023-07-29T06:35:23;16.10;99.90
4279;DHT22;2153;47.744;10.580;2023-07-29T06:37:50;16.20;99.90
4279;DHT22;2153;47.744;10.580;2023-07-29T06:40:17;16.30;99.90
4279;DHT22;2153;47.744;10.580;2023-07-29T06:42:43;16.40;99.90
4279;DHT22;2153;47.744;10.580;2023-07-29T06:45:10;16.50;99.90
4279;DHT22;2153;47.744;10.580;2023-07-29T06:47:38;16.60;99.90
4279;DHT22;2153;47.744;10.580;2023-07-29T06:50:05;16.70;99.90
4279;DHT22;2153;47.744;10.580;2023-07-29T06:52:32;16.90;99.90
4279;DHT22;2153;47.744;10.580;2023-07-29T06:54:59;17.20;99.90
4279;DHT22;2153;47.744;10.580;2023-07-29T06:57:26;17.30;99.90
4279;DHT22;2153;47.744;10.580;2023-07-29T06:59:52;17.40;99.90
4279;DHT22;2153;47.744;10.580;2023-07-29T07:02:19;17.60;99.90
4279;DHT22;2153;47.744;10.580;2023-07-29T07:04:47;17.80;99.90
4279;DHT22;2153;47.744;10.580;2023-07-29T07:07:15;17.90;99.90
4279;DHT22;2153;47.744;10.580;2023-07-29T07:09:41;18.10;99.90
4279;DHT22;2153;47.744;10.580;2023-07-29T07:12:08;18.30;99.90
4279;DHT22;2153;47.744;10.580;2023-07-29T07:14:35;18.60;99.90
4279;DHT22;2153;47.744;10.580;2023-07-29T07:17:02;18.70;99.90
4279;DHT22;2153;47.744;10.580;2023-07-29T07:19:28;18.70;99.90
4279;DHT22;2153;47.744;10.580;2023-07-29T07:21:56;18.50;99.90
4279;DHT22;2153;47.744;10.580;2023-07-29T07:24:23;18.40;99.90
4279;DHT22;2153;47.744;10.580;2023-07-29T07:26:50;18.50;99.90
4279;DHT22;2153;47.744;10.580;2023-07-29T07:29:16;18.50;99.90
4279;DHT22;2153;47.744;10.580;2023-07-29T07:31:49;18.60;99.90
4279;DHT22;2153;47.744;10.580;2023-07-29T07:34:16;18.60;99.90
4279;DHT22;2153;47.744;10.580;2023-07-29T07:36:43;18.60;99.90
4279;DHT22;2153;47.744;10.580;2023-07-29T07:39:11;18.60;99.90
4279;DHT22;2153;47.744;10.580;2023-07-29T07:41:38;18.60;99.90
4279;DHT22;2153;47.744;10.580;2023-07-29T07:44:04;18.80;99.90
4279;DHT22;2153;47.744;10.580;2023-07-29T07:46:31;18.80;99.90
4279;DHT22;2153;47.744;10.580;2023-07-29T07:48:58;18.80;99.90
4279;DHT22;2153;47.744;10.580;2023-07-29T07:51:24;18.80;99.90
4279;DHT22;2153;47.744;10.580;2023-07-29T07:53:51;18.70;99.90
4279;DHT22;2153;47.744;10.580;2023-07-29T07:56:19;18.70;99.90
4279;DHT22;2153;47.744;10.580;2023-07-29T07:58:46;18.70;99.90
4279;DHT22;2153;47.744;10.580;2023-07-29T08:01:12;18.80;99.90
4279;DHT22;2153;47.744;10.580;2023-07-29T08:03:40;18.90;99.90
4279;DHT22;2153;47.744;10.580;2023-07-29T08:06:06;19.00;99.90
4279;DHT22;2153;47.744;10.580;2023-07-29T08:08:33;19.00;99.90
4279;DHT22;2153;47.744;10.580;2023-07-29T08:11:00;18.90;99.90
4279;DHT22;2153;47.744;10.580;2023-07-29T08:13:28;18.90;99.90
4279;DHT22;2153;47.744;10.580;2023-07-29T08:15:54;19.00;99.90
4279;DHT22;2153;47.744;10.580;2023-07-29T08:18:21;19.10;99.90
4279;DHT22;2153;47.744;10.580;2023-07-29T08:20:52;19.20;99.90
4279;DHT22;2153;47.744;10.580;2023-07-29T08:23:19;19.30;99.90
4279;DHT22;2153;47.744;10.580;2023-07-29T08:25:51;19.40;99.90
4279;DHT22;2153;47.744;10.580;2023-07-29T08:28:18;19.50;99.90
4279;DHT22;2153;47.744;10.580;2023-07-29T08:30:46;19.50;99.90
4279;DHT22;2153;47.744;10.580;2023-07-29T08:33:13;19.50;99.90
4279;DHT22;2153;47.744;10.580;2023-07-29T08:35:40;19.70;99.90
4279;DHT22;2153;47.744;10.580;2023-07-29T08:38:06;20.20;99.90
4279;DHT22;2153;47.744;10.580;2023-07-29T08:40:35;20.60;99.90
4279;DHT22;2153;47.744;10.580;2023-07-29T08:43:04;20.90;99.90
4279;DHT22;2153;47.744;10.580;2023-07-29T08:45:34;21.30;99.90
4279;DHT22;2153;47.744;10.580;2023-07-29T08:48:07;21.60;99.90
4279;DHT22;2153;47.744;10.580;2023-07-29T08:50:36;22.30;99.90
4279;DHT22;2153;47.744;10.580;2023-07-29T08:53:04;22.70;99.90
4279;DHT22;2153;47.744;10.580;2023-07-29T08:55:31;23.00;99.90
4279;DHT22;2153;47.744;10.580;2023-07-29T08:57:59;23.70;99.90
4279;DHT22;2153;47.744;10.580;2023-07-29T09:00:27;24.00;99.90
4279;DHT22;2153;47.744;10.580;2023-07-29T09:02:54;24.10;99.90
4279;DHT22;2153;47.744;10.580;2023-07-29T09:05:22;24.00;99.90
4279;DHT22;2153;47.744;10.580;2023-07-29T09:07:51;23.90;99.90
4279;DHT22;2153;47.744;10.580;2023-07-29T09:10:21;23.80;99.90
4279;DHT22;2153;47.744;10.580;2023-07-29T09:12:48;24.00;99.90
4279;DHT22;2153;47.744;10.580;2023-07-29T09:15:26;24.10;99.90
4279;DHT22;2153;47.744;10.580;2023-07-29T09:17:53;23.90;99.90
4279;DHT22;2153;47.744;10.580;2023-07-29T09:20:25;24.20;99.90
4279;DHT22;2153;47.744;10.580;2023-07-29T09:22:53;24.40;99.90
4279;DHT22;2153;47.744;10.580;2023-07-29T09:25:23;24.50;99.90
4279;DHT22;2153;47.744;10.580;2023-07-29T09:27:50;24.90;99.90
4279;DHT22;2153;47.744;10.580;2023-07-29T09:30:17;24.90;99.90
4279;DHT22;2153;47.744;10.580;2023-07-29T09:32:44;25.20;99.90
4279;DHT22;2153;47.744;10.580;2023-07-29T09:35:11;25.40;99.90
4279;DHT22;2153;47.744;10.580;2023-07-29T09:37:39;25.50;99.90
4279;DHT22;2153;47.744;10.580;2023-07-29T09:40:07;25.40;99.90
4279;DHT22;2153;47.744;10.580;2023-07-29T09:42:39;25.30;99.90
4279;DHT22;2153;47.744;10.580;2023-07-29T09:45:06;25.30;99.90
4279;DHT22;2153;47.744;10.580;2023-07-29T09:47:33;25.60;99.90
4279;DHT22;2153;47.744;10.580;2023-07-29T09:50:00;25.80;99.90
4279;DHT22;2153;47.744;10.580;2023-07-29T09:52:27;25.60;99.90
4279;DHT22;2153;47.744;10.580;2023-07-29T09:54:55;25.40;99.90
4279;DHT22;2153;47.744;10.580;2023-07-29T09:57:22;25.30;99.90
4279;DHT22;2153;47.744;10.580;2023-07-29T09:59:55;25.50;99.90
4279;DHT22;2153;47.744;10.580;2023-07-29T10:02:22;25.70;99.90
4279;DHT22;2153;47.744;10.580;2023-07-29T10:04:52;25.50;99.90
4279;DHT22;2153;47.744;10.580;2023-07-29T10:07:19;25.20;99.90
4279;DHT22;2153;47.744;10.580;2023-07-29T10:09:46;25.30;99.90
4279;DHT22;2153;47.744;10.580;2023-07-29T10:12:14;25.40;99.90
4279;DHT22;2153;47.744;10.580;2023-07-29T10:14:41;25.40;99.90
4279;DHT22;2153;47.744;10.580;2023-07-29T10:17:09;25.30;99.90
4279;DHT22;2153;47.744;10.580;2023-07-29T10:19:37;25.10;99.90
4279;DHT22;2153;47.744;10.580;2023-07-29T10:22:04;24.90;99.90
4279;DHT22;2153;47.744;10.580;2023-07-29T10:24:33;25.00;99.90
4279;DHT22;2153;47.744;10.580;2023-07-29T10:27:01;24.80;99.90
4279;DHT22;2153;47.744;10.580;2023-07-29T10:29:31;24.20;99.90
4279;DHT22;2153;47.744;10.580;2023-07-29T10:32:01;23.80;99.90
4279;DHT22;2153;47.744;10.580;2023-07-29T10:34:30;24.00;99.90
4279;DHT22;2153;47.744;10.580;2023-07-29T10:36:57;24.20;99.90
4279;DHT22;2153;47.744;10.580;2023-07-29T10:39:24;24.20;99.90
4279;DHT22;2153;47.744;10.580;2023-07-29T10:41:55;23.90;99.90
4279;DHT22;2153;47.744;10.580;2023-07-29T10:44:48;24.10;99.90
4279;DHT22;2153;47.744;10.580;2023-07-29T10:47:17;24.10;99.90
4279;DHT22;2153;47.744;10.580;2023-07-29T10:49:44;24.80;99.90
4279;DHT22;2153;47.744;10.580;2023-07-29T10:52:13;25.30;99.90
4279;DHT22;2153;47.744;10.580;2023-07-29T10:54:44;25.20;99.90
4279;DHT22;2153;47.744;10.580;2023-07-29T10:57:14;25.20;99.90
4279;DHT22;2153;47.744;10.580;2023-07-29T10:59:41;25.00;99.90
4279;DHT22;2153;47.744;10.580;2023-07-29T11:02:20;24.70;99.90
4279;DHT22;2153;47.744;10.580;2023-07-29T11:04:49;24.10;99.90
4279;DHT22;2153;47.744;10.580;2023-07-29T11:07:23;23.80;99.90
4279;DHT22;2153;47.744;10.580;2023-07-29T11:09:53;23.60;99.90
4279;DHT22;2153;47.744;10.580;2023-07-29T11:12:38;23.90;99.90
4279;DHT22;2153;47.744;10.580;2023-07-29T11:15:13;24.20;99.90
4279;DHT22;2153;47.744;10.580;2023-07-29T11:17:43;24.40;99.90
4279;DHT22;2153;47.744;10.580;2023-07-29T11:20:11;24.80;99.90
4279;DHT22;2153;47.744;10.580;2023-07-29T11:22:38;24.70;99.90
4279;DHT22;2153;47.744;10.580;2023-07-29T11:25:07;24.50;99.90
4279;DHT22;2153;47.744;10.580;2023-07-29T11:27:34;24.20;99.90
4279;DHT22;2153;47.744;10.580;2023-07-29T11:30:02;24.20;99.90
4279;DHT22;2153;47.744;10.580;2023-07-29T11:32:30;24.10;99.90
4279;DHT22;2153;47.744;10.580;2023-07-29T11:35:03;24.20;99.90
4279;DHT22;2153;47.744;10.580;2023-07-29T11:37:30;24.40;99.90
4279;DHT22;2153;47.744;10.580;2023-07-29T11:39:57;24.70;99.90
4279;DHT22;2153;47.744;10.580;2023-07-29T11:42:24;24.80;99.90
4279;DHT22;2153;47.744;10.580;2023-07-29T11:44:50;24.80;99.90
4279;DHT22;2153;47.744;10.580;2023-07-29T11:47:17;24.70;99.90
4279;DHT22;2153;47.744;10.580;2023-07-29T11:49:44;24.70;99.90
4279;DHT22;2153;47.744;10.580;2023-07-29T11:52:12;24.70;99.90
4279;DHT22;2153;47.744;10.580;2023-07-29T11:54:39;24.70;99.90
4279;DHT22;2153;47.744;10.580;2023-07-29T11:57:06;25.30;99.90
4279;DHT22;2153;47.744;10.580;2023-07-29T11:59:34;25.20;99.90
4279;DHT22;2153;47.744;10.580;2023-07-29T12:02:01;25.20;99.90
4279;DHT22;2153;47.744;10.580;2023-07-29T12:04:29;25.20;99.90
4279;DHT22;2153;47.744;10.580;2023-07-29T12:06:56;25.20;99.90
4279;DHT22;2153;47.744;10.580;2023-07-29T12:09:25;25.90;99.90
4279;DHT22;2153;47.744;10.580;2023-07-29T12:11:52;25.90;99.90
4279;DHT22;2153;47.744;10.580;2023-07-29T12:14:19;26.20;99.90
4279;DHT22;2153;47.744;10.580;2023-07-29T12:16:48;26.10;99.90
4279;DHT22;2153;47.744;10.580;2023-07-29T12:19:15;26.20;99.90
4279;DHT22;2153;47.744;10.580;2023-07-29T12:21:43;25.80;99.90
4279;DHT22;2153;47.744;10.580;2023-07-29T12:24:12;25.60;99.90
4279;DHT22;2153;47.744;10.580;2023-07-29T12:26:40;26.00;99.90
4279;DHT22;2153;47.744;10.580;2023-07-29T12:29:14;26.10;99.90
4279;DHT22;2153;47.744;10.580;2023-07-29T12:31:41;25.60;99.90
4279;DHT22;2153;47.744;10.580;2023-07-29T12:34:08;25.40;99.90
4279;DHT22;2153;47.744;10.580;2023-07-29T12:36:42;25.80;99.90
4279;DHT22;2153;47.744;10.580;2023-07-29T12:39:16;26.20;99.90
4279;DHT22;2153;47.744;10.580;2023-07-29T12:41:45;26.00;99.90
4279;DHT22;2153;47.744;10.580;2023-07-29T12:44:12;26.10;99.90
4279;DHT22;2153;47.744;10.580;2023-07-29T12:46:38;26.10;99.90
4279;DHT22;2153;47.744;10.580;2023-07-29T12:49:05;25.90;99.90
4279;DHT22;2153;47.744;10.580;2023-07-29T12:51:32;25.60;99.90
4279;DHT22;2153;47.744;10.580;2023-07-29T12:53:59;25.20;99.90
4279;DHT22;2153;47.744;10.580;2023-07-29T12:56:26;24.70;99.90
4279;DHT22;2153;47.744;10.580;2023-07-29T12:58:54;24.20;99.90
4279;DHT22;2153;47.744;10.580;2023-07-29T13:01:21;23.90;99.90
4279;DHT22;2153;47.744;10.580;2023-07-29T13:03:48;24.00;99.90
4279;DHT22;2153;47.744;10.580;2023-07-29T13:06:15;23.90;99.90
4279;DHT22;2153;47.744;10.580;2023-07-29T13:08:42;24.00;99.90
4279;DHT22;2153;47.744;10.580;2023-07-29T13:11:09;24.10;99.90
4279;DHT22;2153;47.744;10.580;2023-07-29T13:13:36;24.20;99.90
4279;DHT22;2153;47.744;10.580;2023-07-29T13:16:04;24.40;99.90
4279;DHT22;2153;47.744;10.580;2023-07-29T13:18:31;24.60;99.90
4279;DHT22;2153;47.744;10.580;2023-07-29T13:20:58;24.50;99.90
4279;DHT22;2153;47.744;10.580;2023-07-29T13:23:25;24.40;99.90
4279;DHT22;2153;47.744;10.580;2023-07-29T13:25:52;24.30;99.90
4279;DHT22;2153;47.744;10.580;2023-07-29T13:28:19;24.00;99.90
4279;DHT22;2153;47.744;10.580;2023-07-29T13:30:46;23.90;99.90
4279;DHT22;2153;47.744;10.580;2023-07-29T13:33:14;23.80;99.90
4279;DHT22;2153;47.744;10.580;2023-07-29T13:35:40;23.70;99.90
4279;DHT22;2153;47.744;10.580;2023-07-29T13:38:07;23.60;99.90
4279;DHT22;2153;47.744;10.580;2023-07-29T13:40:34;23.40;99.90
4279;DHT22;2153;47.744;10.580;2023-07-29T13:43:01;23.40;99.90
4279;DHT22;2153;47.744;10.580;2023-07-29T13:45:28;23.20;99.90
4279;DHT22;2153;47.744;10.580;2023-07-29T13:47:55;23.10;99.90
4279;DHT22;2153;47.744;10.580;2023-07-29T13:50:23;22.90;99.90
4279;DHT22;2153;47.744;10.580;2023-07-29T13:52:49;22.80;99.90
4279;DHT22;2153;47.744;10.580;2023-07-29T13:55:16;22.70;99.90
4279;DHT22;2153;47.744;10.580;2023-07-29T13:57:43;22.60;99.90
4279;DHT22;2153;47.744;10.580;2023-07-29T14:00:10;22.60;99.90
4279;DHT22;2153;47.744;10.580;2023-07-29T14:02:37;22.60;99.90
4279;DHT22;2153;47.744;10.580;2023-07-29T14:05:04;22.60;99.90
4279;DHT22;2153;47.744;10.580;2023-07-29T14:07:33;22.60;99.90
4279;DHT22;2153;47.744;10.580;2023-07-29T14:10:00;22.60;99.90
4279;DHT22;2153;47.744;10.580;2023-07-29T14:12:27;22.60;99.90
4279;DHT22;2153;47.744;10.580;2023-07-29T14:14:53;22.50;99.90
4279;DHT22;2153;47.744;10.580;2023-07-29T14:17:20;22.50;99.90
4279;DHT22;2153;47.744;10.580;2023-07-29T14:19:47;22.50;99.90
4279;DHT22;2153;47.744;10.580;2023-07-29T14:22:13;22.40;99.90
4279;DHT22;2153;47.744;10.580;2023-07-29T14:24:41;22.30;99.90
4279;DHT22;2153;47.744;10.580;2023-07-29T14:27:08;22.30;99.90
4279;DHT22;2153;47.744;10.580;2023-07-29T14:29:35;22.30;99.90
4279;DHT22;2153;47.744;10.580;2023-07-29T14:32:02;22.30;99.90
4279;DHT22;2153;47.744;10.580;2023-07-29T14:34:28;22.30;99.90
4279;DHT22;2153;47.744;10.580;2023-07-29T14:36:55;22.20;99.90
4279;DHT22;2153;47.744;10.580;2023-07-29T14:39:22;22.20;99.90
4279;DHT22;2153;47.744;10.580;2023-07-29T14:41:50;22.10;99.90
4279;DHT22;2153;47.744;10.580;2023-07-29T14:44:16;22.10;99.90
4279;DHT22;2153;47.744;10.580;2023-07-29T14:46:43;22.10;99.90
4279;DHT22;2153;47.744;10.580;2023-07-29T14:49:10;22.00;99.90
4279;DHT22;2153;47.744;10.580;2023-07-29T14:51:37;22.00;99.90
4279;DHT22;2153;47.744;10.580;2023-07-29T14:54:04;21.90;99.90
4279;DHT22;2153;47.744;10.580;2023-07-29T14:56:30;21.80;99.90
4279;DHT22;2153;47.744;10.580;2023-07-29T14:58:58;21.60;99.90
4279;DHT22;2153;47.744;10.580;2023-07-29T15:01:25;21.40;99.90
4279;DHT22;2153;47.744;10.580;2023-07-29T15:03:52;21.30;99.90
4279;DHT22;2153;47.744;10.580;2023-07-29T15:06:18;21.20;99.90
4279;DHT22;2153;47.744;10.580;2023-07-29T15:08:45;21.10;99.90
4279;DHT22;2153;47.744;10.580;2023-07-29T15:11:12;20.90;99.90
4279;DHT22;2153;47.744;10.580;2023-07-29T15:13:38;20.90;99.90
4279;DHT22;2153;47.744;10.580;2023-07-29T15:16:06;20.60;99.90
4279;DHT22;2153;47.744;10.580;2023-07-29T15:18:33;20.50;99.90
4279;DHT22;2153;47.744;10.580;2023-07-29T15:21:00;20.30;99.90
4279;DHT22;2153;47.744;10.580;2023-07-29T15:23:27;20.10;99.90
4279;DHT22;2153;47.744;10.580;2023-07-29T15:25:54;19.90;99.90
4279;DHT22;2153;47.744;10.580;2023-07-29T15:28:21;19.70;99.90
4279;DHT22;2153;47.744;10.580;2023-07-29T15:30:48;19.50;99.90
4279;DHT22;2153;47.744;10.580;2023-07-29T15:33:16;19.40;99.90
4279;DHT22;2153;47.744;10.580;2023-07-29T15:35:42;19.20;99.90
4279;DHT22;2153;47.744;10.580;2023-07-29T15:38:09;19.10;99.90
4279;DHT22;2153;47.744;10.580;2023-07-29T15:40:37;19.00;99.90
4279;DHT22;2153;47.744;10.580;2023-07-29T15:43:03;18.80;99.90
4279;DHT22;2153;47.744;10.580;2023-07-29T15:45:30;18.70;99.90
4279;DHT22;2153;47.744;10.580;2023-07-29T15:47:57;18.60;99.90